Time;durP1;ratioP1;P1;durP2;ratioP2;P2;SDS_P1;SDS_P2;PMS_P1;PMS_P2;Temp;Humidity;BMP_temperature;BMP_pressure;BME280_temperature;BME280_humidity;BME280_pressure;Samples;Min_cycle;Max_cycle;Signal;HPM_P1;HPM_P2
2022/05/16 00:02:20;;;;;;;6.97;2.87;;;17.20;99.90;;;;;;5027086;28;20465;-72
2022/05/16 00:04:49;;;;;;;6.30;2.67;;;17.20;99.90;;;;;;5031169;28;20458;-72
2022/05/16 00:07:17;;;;;;;3.20;2.77;;;17.20;99.90;;;;;;5029104;28;20489;-73
2022/05/16 00:09:44;;;;;;;9.47;3.03;;;17.20;99.90;;;;;;5032112;28;20494;-72
2022/05/16 00:12:13;;;;;;;3.77;3.43;;;17.10;99.90;;;;;;5032042;28;20954;-73
2022/05/16 00:14:41;;;;;;;6.00;3.00;;;17.10;99.90;;;;;;5023629;28;21220;-73
2022/05/16 00:17:09;;;;;;;3.30;2.57;;;17.10;99.90;;;;;;5037436;28;20460;-72
2022/05/16 00:19:35;;;;;;;5.40;2.43;;;17.10;99.90;;;;;;5031382;28;20716;-72
2022/05/16 00:22:02;;;;;;;4.53;3.57;;;17.00;99.90;;;;;;5027265;28;20466;-73
2022/05/16 00:24:29;;;;;;;2.50;2.30;;;17.00;99.90;;;;;;5021585;28;20516;-72
2022/05/16 00:26:56;;;;;;;5.77;2.80;;;17.00;99.90;;;;;;5028377;28;20484;-72
2022/05/16 00:29:23;;;;;;;4.50;3.00;;;17.00;99.90;;;;;;5032424;28;21024;-72
2022/05/16 00:31:50;;;;;;;3.50;2.80;;;16.90;99.90;;;;;;5029591;28;20490;-72
2022/05/16 00:34:18;;;;;;;13.40;3.30;;;17.00;99.90;;;;;;5036672;28;20510;-72
2022/05/16 00:36:47;;;;;;;5.30;3.37;;;17.00;99.90;;;;;;5028287;28;21025;-72
2022/05/16 00:39:17;;;;;;;4.93;3.10;;;17.00;99.90;;;;;;5052009;22;20502;-76
2022/05/16 00:41:47;;;;;;;9.70;4.50;;;17.00;99.90;;;;;;5046963;28;20445;-77
2022/05/16 00:44:14;;;;;;;6.83;3.77;;;17.00;99.90;;;;;;5054136;28;20694;-75
2022/05/16 00:46:41;;;;;;;5.13;3.77;;;17.10;99.90;;;;;;5059188;28;20684;-75
2022/05/16 00:49:16;;;;;;;4.13;2.53;;;17.20;99.90;;;;;;5047920;28;20551;-76
2022/05/16 00:51:49;;;;;;;8.17;3.60;;;17.30;99.90;;;;;;5050010;28;20468;-75
2022/05/16 00:54:25;;;;;;;4.80;2.77;;;17.30;99.90;;;;;;5052826;28;20569;-76
2022/05/16 00:56:54;;;;;;;4.67;3.03;;;17.30;99.90;;;;;;5049603;28;21164;-76
2022/05/16 00:59:26;;;;;;;4.23;2.90;;;17.30;99.90;;;;;;5049082;28;20831;-76
2022/05/16 01:04:50;;;;;;;5.80;5.20;;;17.30;99.90;;;;;;5051471;28;20508;-76
2022/05/16 01:07:27;;;;;;;4.23;2.80;;;17.20;99.90;;;;;;5041991;28;20504;-76
2022/05/16 01:09:54;;;;;;;5.23;3.27;;;17.20;99.90;;;;;;5052798;28;20557;-76
2022/05/16 01:12:34;;;;;;;5.73;2.50;;;17.20;99.90;;;;;;5052063;28;20523;-76
2022/05/16 01:15:05;;;;;;;11.63;3.30;;;17.30;99.90;;;;;;5051524;28;20481;-76
2022/05/16 01:17:47;;;;;;;6.23;3.60;;;17.30;99.90;;;;;;5046509;28;20452;-76
2022/05/16 01:20:13;;;;;;;7.70;3.83;;;17.20;99.90;;;;;;5049577;28;20477;-76
2022/05/16 01:22:44;;;;;;;4.27;3.13;;;17.20;99.90;;;;;;5047197;28;20477;-76
2022/05/16 01:25:15;;;;;;;6.37;4.40;;;17.10;99.90;;;;;;5054475;28;20955;-76
2022/05/16 01:27:53;;;;;;;12.43;3.47;;;17.10;99.90;;;;;;5048094;28;20484;-76
2022/05/16 01:30:29;;;;;;;11.53;4.67;;;17.10;99.90;;;;;;5047423;28;20566;-76
2022/05/16 01:32:58;;;;;;;4.23;3.83;;;17.10;99.90;;;;;;5052179;28;20461;-76
2022/05/16 01:35:27;;;;;;;4.70;3.33;;;17.10;99.90;;;;;;5046630;28;20484;-76
2022/05/16 01:40:40;;;;;;;6.43;2.87;;;17.10;99.90;;;;;;5047842;28;20526;-76
2022/05/16 01:43:07;;;;;;;3.10;2.80;;;17.00;99.90;;;;;;5051397;28;20468;-75
2022/05/16 01:45:42;;;;;;;9.57;3.63;;;17.00;99.90;;;;;;5049298;28;20529;-76
2022/05/16 01:48:09;;;;;;;7.50;3.57;;;16.90;99.90;;;;;;5050488;28;20571;-76
2022/05/16 01:50:36;;;;;;;3.60;3.23;;;16.90;99.90;;;;;;5050101;28;20467;-76
2022/05/16 01:53:08;;;;;;;6.03;3.30;;;16.90;99.90;;;;;;5050542;28;20475;-76
2022/05/16 01:55:35;;;;;;;5.50;3.30;;;16.90;99.90;;;;;;5051056;28;20462;-76
2022/05/16 01:58:04;;;;;;;3.90;3.50;;;16.90;99.90;;;;;;5049591;28;20495;-76
2022/05/16 02:00:33;;;;;;;4.00;3.20;;;17.00;99.90;;;;;;5047450;28;20486;-76
2022/05/16 02:03:01;;;;;;;5.57;3.07;;;17.00;99.90;;;;;;5050637;28;20473;-76
2022/05/16 02:05:28;;;;;;;3.80;3.00;;;16.90;99.90;;;;;;5052098;28;20458;-76
2022/05/16 02:07:55;;;;;;;4.07;3.13;;;16.80;99.90;;;;;;5049519;28;20609;-76
2022/05/16 02:10:26;;;;;;;4.57;2.80;;;16.70;99.90;;;;;;5056280;28;20544;-76
2022/05/16 02:12:56;;;;;;;9.03;3.33;;;16.70;99.90;;;;;;5048170;28;20455;-76
2022/05/16 02:15:25;;;;;;;4.80;2.87;;;16.80;99.90;;;;;;5056798;28;20560;-76
2022/05/16 02:17:52;;;;;;;4.10;3.40;;;16.70;99.90;;;;;;5049400;28;20966;-76
2022/05/16 02:20:19;;;;;;;8.53;3.43;;;16.70;99.90;;;;;;5048329;28;20488;-76
2022/05/16 02:25:33;;;;;;;3.50;2.97;;;16.70;99.90;;;;;;5045129;28;20463;-76
2022/05/16 02:28:00;;;;;;;4.53;3.73;;;16.80;99.90;;;;;;5054322;28;20538;-76
2022/05/16 02:30:27;;;;;;;7.50;4.27;;;16.80;99.90;;;;;;5049214;28;20857;-75
2022/05/16 02:32:55;;;;;;;4.97;4.53;;;16.80;99.90;;;;;;5047850;28;20882;-76
2022/05/16 02:35:22;;;;;;;8.03;4.00;;;16.70;99.90;;;;;;5050053;28;20468;-75
2022/05/16 02:37:49;;;;;;;16.43;4.23;;;16.70;99.90;;;;;;5044077;28;21765;-76
2022/05/16 02:40:16;;;;;;;5.23;3.90;;;16.70;99.90;;;;;;5044517;28;20485;-76
2022/05/16 02:42:44;;;;;;;4.13;3.27;;;16.60;99.90;;;;;;5057586;28;20588;-76
2022/05/16 02:45:12;;;;;;;6.73;3.00;;;16.60;99.90;;;;;;5051013;28;20464;-75
2022/05/16 02:47:38;;;;;;;5.03;2.60;;;16.60;99.90;;;;;;5051826;28;20460;-75
2022/05/16 02:50:06;;;;;;;8.17;3.87;;;16.60;99.90;;;;;;5055723;28;20456;-76
2022/05/16 02:52:32;;;;;;;3.73;2.60;;;16.70;99.90;;;;;;5053740;28;20468;-76
2022/05/16 02:55:01;;;;;;;2.80;2.60;;;16.70;99.90;;;;;;5051225;28;20476;-76
2022/05/16 02:57:30;;;;;;;9.20;5.00;;;16.70;99.90;;;;;;5050944;28;20537;-76
2022/05/16 02:59:59;;;;;;;10.07;3.97;;;16.60;99.90;;;;;;5051219;28;20905;-76
2022/05/16 03:02:26;;;;;;;15.20;4.10;;;16.60;99.90;;;;;;5053619;28;20464;-76
2022/05/16 03:04:53;;;;;;;4.30;3.20;;;16.50;99.90;;;;;;5052484;28;20494;-76
2022/05/16 03:07:20;;;;;;;7.57;3.30;;;16.50;99.90;;;;;;5053291;28;21000;-76
2022/05/16 03:09:48;;;;;;;4.27;3.77;;;16.40;99.90;;;;;;5053772;28;20474;-76
2022/05/16 03:12:15;;;;;;;5.17;2.93;;;16.40;99.90;;;;;;5060027;28;20778;-75
2022/05/16 03:14:44;;;;;;;3.67;3.20;;;16.50;99.90;;;;;;5040726;28;20464;-75
2022/05/16 03:17:12;;;;;;;4.40;3.60;;;16.50;99.90;;;;;;5049769;28;20438;-76
2022/05/16 03:19:39;;;;;;;4.80;3.63;;;16.50;99.90;;;;;;5052650;28;20491;-76
2022/05/16 03:22:08;;;;;;;9.53;3.30;;;16.50;99.90;;;;;;5051669;28;20460;-76
2022/05/16 03:24:35;;;;;;;4.93;3.30;;;16.50;99.90;;;;;;5056876;28;20437;-75
2022/05/16 03:27:03;;;;;;;7.03;3.50;;;16.50;99.90;;;;;;5061545;28;20456;-76
2022/05/16 03:29:31;;;;;;;6.40;3.47;;;16.40;99.90;;;;;;5049511;28;20852;-76
2022/05/16 03:31:57;;;;;;;6.27;3.17;;;16.50;99.90;;;;;;5049606;28;20469;-76
2022/05/16 03:34:26;;;;;;;3.90;2.70;;;16.40;99.90;;;;;;5057759;28;20460;-76
2022/05/16 03:36:52;;;;;;;11.80;3.50;;;16.40;99.90;;;;;;5062800;28;20432;-75
2022/05/16 03:42:04;;;;;;;6.33;2.90;;;16.40;99.90;;;;;;5053541;28;20926;-76
2022/05/16 03:44:32;;;;;;;7.50;3.33;;;16.40;99.90;;;;;;5045562;28;20465;-76
2022/05/16 03:46:59;;;;;;;7.60;3.93;;;16.40;99.90;;;;;;5031960;28;20474;-76
2022/05/16 03:49:29;;;;;;;12.07;3.60;;;16.40;99.90;;;;;;5041164;28;20552;-76
2022/05/16 03:51:56;;;;;;;6.80;3.10;;;16.30;99.90;;;;;;5057284;28;20527;-76
2022/05/16 03:54:23;;;;;;;5.13;3.83;;;16.20;99.90;;;;;;5048268;28;20579;-76
2022/05/16 03:56:49;;;;;;;9.83;3.97;;;16.20;99.90;;;;;;5047939;28;20470;-76
2022/05/16 03:59:16;;;;;;;3.50;3.20;;;16.20;99.90;;;;;;5042532;28;20841;-76
2022/05/16 04:01:44;;;;;;;5.00;2.53;;;16.30;99.90;;;;;;5054526;28;21095;-75
2022/05/16 04:04:10;;;;;;;6.10;3.17;;;16.20;99.90;;;;;;5047909;28;20576;-75
2022/05/16 04:06:39;;;;;;;10.10;5.00;;;16.20;99.90;;;;;;5056466;28;20679;-75
2022/05/16 04:09:05;;;;;;;7.23;3.17;;;16.20;99.90;;;;;;5049742;28;20489;-75
2022/05/16 04:11:34;;;;;;;11.90;3.50;;;16.20;99.90;;;;;;5052302;28;20511;-75
2022/05/16 04:14:01;;;;;;;9.53;3.83;;;16.10;99.90;;;;;;5055142;28;20542;-75
2022/05/16 04:16:27;;;;;;;4.93;3.50;;;16.10;99.90;;;;;;5046615;28;20498;-75
2022/05/16 04:18:54;;;;;;;12.53;3.57;;;16.10;99.90;;;;;;5044458;28;20462;-75
2022/05/16 04:21:21;;;;;;;13.43;4.60;;;16.20;99.90;;;;;;5043300;28;20467;-76
2022/05/16 04:23:49;;;;;;;6.07;3.20;;;16.20;99.90;;;;;;5049899;28;20460;-76
2022/05/16 04:26:16;;;;;;;5.50;3.67;;;16.20;99.90;;;;;;5045960;28;20430;-76
2022/05/16 04:28:42;;;;;;;4.50;3.23;;;16.30;99.90;;;;;;5049022;28;20497;-76
2022/05/16 04:31:09;;;;;;;5.00;3.10;;;16.30;99.90;;;;;;5052917;28;20458;-76
2022/05/16 04:33:36;;;;;;;5.40;2.13;;;16.30;99.90;;;;;;5060241;28;20975;-76
2022/05/16 04:36:03;;;;;;;5.30;3.07;;;16.20;99.90;;;;;;5053678;28;20458;-76
2022/05/16 04:38:30;;;;;;;2.93;2.70;;;16.10;99.90;;;;;;5051446;28;20456;-76
2022/05/16 04:43:42;;;;;;;5.70;2.67;;;16.40;99.90;;;;;;5050171;28;20606;-76
2022/05/16 04:46:15;;;;;;;2.73;2.30;;;16.30;99.90;;;;;;5057109;28;20957;-76
2022/05/16 04:48:42;;;;;;;8.63;3.10;;;16.40;99.90;;;;;;5058629;28;20513;-76
2022/05/16 04:51:09;;;;;;;11.33;3.63;;;16.50;99.90;;;;;;5061056;28;20999;-76
2022/05/16 04:53:35;;;;;;;7.00;3.47;;;16.40;99.90;;;;;;5064278;28;20438;-76
2022/05/16 04:56:05;;;;;;;4.40;2.70;;;16.40;99.90;;;;;;5057522;28;20458;-76
2022/05/16 04:58:33;;;;;;;8.23;3.43;;;16.50;99.90;;;;;;5051659;28;20994;-76
2022/05/16 05:00:59;;;;;;;5.63;4.27;;;16.60;99.90;;;;;;5059022;28;20827;-76
2022/05/16 05:03:26;;;;;;;14.03;4.00;;;16.80;99.90;;;;;;5062226;28;20466;-76
2022/05/16 05:05:53;;;;;;;3.97;3.10;;;17.20;99.90;;;;;;5054473;28;20461;-76
2022/05/16 05:08:19;;;;;;;8.10;3.50;;;17.50;99.90;;;;;;5054102;28;20483;-76
2022/05/16 05:16:19;;;;;;;9.23;3.23;;;18.20;99.90;;;;;;5050512;28;20461;-75
2022/05/16 05:18:46;;;;;;;4.90;3.20;;;18.30;99.90;;;;;;5056849;28;20518;-75
2022/05/16 05:21:13;;;;;;;5.53;2.87;;;18.50;99.90;;;;;;5060757;28;20458;-75
2022/05/16 05:23:40;;;;;;;5.80;3.67;;;18.90;99.90;;;;;;5055837;28;20955;-75
2022/05/16 05:26:08;;;;;;;5.23;3.00;;;19.20;99.90;;;;;;5058290;28;20454;-75
2022/05/16 05:28:37;;;;;;;7.73;3.60;;;19.20;99.90;;;;;;5059359;28;20482;-76
2022/05/16 05:31:04;;;;;;;8.17;3.57;;;19.50;99.90;;;;;;5057609;28;20488;-76
2022/05/16 05:33:30;;;;;;;7.50;3.20;;;19.70;99.90;;;;;;5061561;28;20465;-76
2022/05/16 05:35:57;;;;;;;8.10;2.90;;;19.90;99.90;;;;;;5056123;28;20469;-75
2022/05/16 05:38:24;;;;;;;5.97;3.70;;;20.00;99.90;;;;;;5058308;28;20463;-76
2022/05/16 05:40:51;;;;;;;9.00;3.43;;;20.10;99.90;;;;;;5059262;28;20558;-74
2022/05/16 05:43:18;;;;;;;9.07;3.60;;;20.10;99.90;;;;;;5062475;28;20453;-75
2022/05/16 05:45:46;;;;;;;6.43;3.23;;;20.00;99.90;;;;;;5060675;28;20541;-76
2022/05/16 05:48:13;;;;;;;6.07;4.10;;;20.10;99.90;;;;;;5056935;28;21938;-76
2022/05/16 05:50:40;;;;;;;13.30;4.23;;;20.40;99.90;;;;;;5058539;28;20486;-76
2022/05/16 05:53:06;;;;;;;6.00;3.60;;;20.70;99.90;;;;;;5055348;28;20461;-76
2022/05/16 05:55:33;;;;;;;10.83;4.13;;;21.20;99.90;;;;;;5060266;28;20454;-76
2022/05/16 05:58:00;;;;;;;7.20;3.83;;;21.80;99.90;;;;;;5058430;28;20482;-76
2022/05/16 06:00:27;;;;;;;6.30;3.50;;;21.60;99.90;;;;;;5052477;28;20474;-75
2022/05/16 06:02:56;;;;;;;10.33;4.30;;;21.80;99.90;;;;;;5053096;28;20540;-75
2022/05/16 06:05:23;;;;;;;5.40;3.53;;;21.50;99.90;;;;;;5054832;28;20636;-75
2022/05/16 06:07:51;;;;;;;8.20;3.77;;;21.40;99.90;;;;;;5055312;28;20962;-75
2022/05/16 06:10:18;;;;;;;5.27;3.30;;;20.80;99.90;;;;;;5052498;28;20490;-75
2022/05/16 06:12:45;;;;;;;5.63;4.07;;;20.30;99.90;;;;;;5058962;28;20551;-75
2022/05/16 06:15:15;;;;;;;6.70;3.77;;;20.40;99.90;;;;;;5053671;28;20967;-75
2022/05/16 06:17:43;;;;;;;5.23;3.50;;;20.60;99.90;;;;;;5056684;28;20469;-75
2022/05/16 06:20:13;;;;;;;9.93;5.13;;;21.00;99.90;;;;;;5054975;28;20498;-75
2022/05/16 06:22:40;;;;;;;6.13;3.80;;;21.20;99.90;;;;;;5055826;28;20524;-75
2022/05/16 06:27:54;;;;;;;9.60;5.70;;;22.50;99.90;;;;;;5055534;28;20440;-74
2022/05/16 06:30:21;;;;;;;7.80;3.27;;;22.90;99.90;;;;;;5054029;28;20490;-75
2022/05/16 06:32:48;;;;;;;6.43;4.07;;;22.80;99.90;;;;;;5051025;28;20460;-75
2022/05/16 06:35:17;;;;;;;8.30;4.20;;;22.60;99.90;;;;;;5053934;28;20456;-76
2022/05/16 06:37:44;;;;;;;7.97;4.27;;;22.60;99.90;;;;;;5058523;28;20458;-76
2022/05/16 06:40:12;;;;;;;4.57;2.93;;;22.70;99.90;;;;;;5077169;22;20591;-75
2022/05/16 06:42:44;;;;;;;6.77;3.90;;;22.30;99.90;;;;;;5035988;28;20808;-74
2022/05/16 06:45:18;;;;;;;7.40;4.13;;;22.20;99.90;;;;;;5039603;28;20453;-75
2022/05/16 06:47:45;;;;;;;6.87;3.57;;;21.90;99.90;;;;;;5037724;28;20605;-75
2022/05/16 06:50:28;;;;;;;11.40;3.70;;;21.90;99.90;;;;;;5036033;28;20852;-75
2022/05/16 06:53:19;;;;;;;7.20;3.63;;;22.10;99.90;;;;;;5039172;28;20461;-75
2022/05/16 06:55:53;;;;;;;7.50;4.10;;;22.10;99.90;;;;;;5034464;28;20464;-75
2022/05/16 06:58:20;;;;;;;5.53;4.47;;;21.90;99.90;;;;;;5037948;28;20460;-74
2022/05/16 07:00:49;;;;;;;8.00;3.60;;;22.00;99.90;;;;;;5036668;28;20590;-74
2022/05/16 07:03:30;;;;;;;11.03;5.83;;;22.00;99.90;;;;;;5035911;28;20457;-74
2022/05/16 07:06:00;;;;;;;8.23;3.97;;;22.00;99.90;;;;;;5037499;28;20472;-75
2022/05/16 07:08:36;;;;;;;8.37;4.00;;;21.70;99.90;;;;;;5036461;28;20458;-75
2022/05/16 07:11:05;;;;;;;4.20;3.20;;;21.40;99.90;;;;;;5034910;28;20564;-75
2022/05/16 07:13:36;;;;;;;5.57;3.33;;;21.30;99.90;;;;;;5038627;28;20974;-75
2022/05/16 07:16:03;;;;;;;7.77;5.03;;;21.30;99.90;;;;;;5035710;28;20478;-75
2022/05/16 07:18:34;;;;;;;4.00;3.60;;;21.30;99.90;;;;;;5039347;28;20550;-75
2022/05/16 07:21:07;;;;;;;8.30;4.47;;;21.10;99.90;;;;;;5033845;28;20882;-75
2022/05/16 07:23:39;;;;;;;9.27;4.00;;;21.20;99.90;;;;;;5033619;28;20603;-74
2022/05/16 07:28:57;;;;;;;4.90;3.33;;;21.20;99.90;;;;;;5036817;28;20453;-75
2022/05/16 07:31:27;;;;;;;7.30;4.77;;;21.20;99.90;;;;;;5034347;28;20488;-75
2022/05/16 07:34:00;;;;;;;11.73;3.43;;;21.30;99.90;;;;;;5037703;28;20463;-74
2022/05/16 07:36:36;;;;;;;5.43;3.33;;;21.60;99.90;;;;;;5037306;28;21071;-75
2022/05/16 07:39:07;;;;;;;9.23;3.87;;;21.50;99.90;;;;;;5037107;28;20508;-75
2022/05/16 07:41:34;;;;;;;9.00;3.70;;;21.80;99.90;;;;;;5038522;28;20487;-75
2022/05/16 07:44:01;;;;;;;3.50;2.60;;;22.20;99.90;;;;;;5041986;28;20468;-75
2022/05/16 07:46:34;;;;;;;12.40;3.93;;;22.40;99.90;;;;;;5046120;28;20930;-75
2022/05/16 07:49:01;;;;;;;4.90;3.00;;;22.70;99.90;;;;;;5041238;28;20553;-75
2022/05/16 07:51:36;;;;;;;12.97;3.97;;;22.60;99.90;;;;;;5041126;28;20478;-75
2022/05/16 07:54:05;;;;;;;3.80;3.40;;;22.30;99.90;;;;;;5039650;28;20783;-76
2022/05/16 07:56:34;;;;;;;8.07;4.27;;;22.60;99.90;;;;;;5044532;28;20470;-76
2022/05/16 07:59:09;;;;;;;7.37;3.73;;;22.60;99.90;;;;;;5039599;28;20538;-75
2022/05/16 08:01:39;;;;;;;6.77;4.20;;;22.70;99.90;;;;;;5037678;28;20488;-76
2022/05/16 08:04:08;;;;;;;10.80;4.17;;;22.70;99.90;;;;;;5037087;28;20459;-75
2022/05/16 08:06:39;;;;;;;3.63;3.23;;;22.80;99.90;;;;;;5042511;28;20501;-75
2022/05/16 08:12:03;;;;;;;15.20;3.43;;;22.50;99.90;;;;;;5041652;28;20456;-75
2022/05/16 08:14:33;;;;;;;15.30;4.90;;;22.70;99.90;;;;;;5041102;28;20835;-75
2022/05/16 08:17:06;;;;;;;24.40;5.20;;;22.80;99.90;;;;;;5041308;28;20458;-75
2022/05/16 08:19:39;;;;;;;10.80;3.83;;;22.80;99.90;;;;;;5039525;28;20491;-76
2022/05/16 08:22:09;;;;;;;15.03;3.80;;;22.80;99.90;;;;;;5038480;28;20464;-76
2022/05/16 08:24:36;;;;;;;13.50;4.40;;;23.20;99.90;;;;;;5043875;28;20549;-76
2022/05/16 08:27:08;;;;;;;11.10;4.80;;;23.20;99.90;;;;;;5039007;28;20471;-75
2022/05/16 08:29:37;;;;;;;14.03;4.70;;;23.30;99.90;;;;;;5040981;28;21085;-75
2022/05/16 08:32:25;;;;;;;17.10;4.07;;;23.40;99.90;;;;;;5041200;28;20490;-75
2022/05/16 08:35:02;;;;;;;8.77;4.17;;;23.60;99.90;;;;;;5039899;28;20473;-75
2022/05/16 08:40:40;;;;;;;14.30;4.27;;;23.60;99.90;;;;;;5037459;28;21001;-74
2022/05/16 08:43:16;;;;;;;12.53;3.33;;;24.00;99.90;;;;;;5040242;28;20463;-74
2022/05/16 08:45:59;;;;;;;9.13;3.70;;;24.00;99.90;;;;;;5037485;28;20510;-74
2022/05/16 08:48:34;;;;;;;14.63;3.67;;;24.10;99.90;;;;;;5039832;28;20490;-74
2022/05/16 08:51:15;;;;;;;7.90;3.77;;;24.20;99.90;;;;;;5040135;28;20601;-75
2022/05/16 08:53:53;;;;;;;4.07;2.77;;;24.10;99.90;;;;;;5038618;28;20574;-74
2022/05/16 08:56:23;;;;;;;8.73;3.97;;;24.30;99.90;;;;;;5040623;28;20461;-74
2022/05/16 08:59:02;;;;;;;7.50;3.40;;;24.50;99.90;;;;;;5040640;28;20505;-74
2022/05/16 09:01:47;;;;;;;12.03;3.27;;;24.80;99.90;;;;;;5034388;28;20483;-75
2022/05/16 09:04:21;;;;;;;6.33;3.40;;;25.10;99.90;;;;;;5030342;28;20517;-75
2022/05/16 09:07:02;;;;;;;4.90;3.10;;;25.10;99.90;;;;;;5041406;28;20462;-75
2022/05/16 09:09:44;;;;;;;2.80;2.17;;;25.00;99.90;;;;;;5041797;28;20514;-74
2022/05/16 09:12:20;;;;;;;7.33;2.83;;;24.80;99.90;;;;;;5035922;28;20897;-74
2022/05/16 09:15:09;;;;;;;8.10;3.33;;;24.60;99.90;;;;;;5040652;28;20458;-75
2022/05/16 09:18:09;;;;;;;6.87;3.70;;;24.80;99.90;;;;;;5039190;28;20477;-74
2022/05/16 09:20:48;;;;;;;3.47;2.63;;;24.90;99.90;;;;;;5038610;28;20478;-74
2022/05/16 09:23:31;;;;;;;9.30;2.83;;;25.10;99.90;;;;;;5039181;28;20537;-74
2022/05/16 09:26:09;;;;;;;5.33;3.30;;;25.00;99.90;;;;;;5039296;28;20458;-74
2022/05/16 09:28:42;;;;;;;16.43;3.50;;;24.90;99.90;;;;;;5038701;28;20467;-75
2022/05/16 09:31:26;;;;;;;7.27;3.00;;;24.70;99.90;;;;;;5040833;28;21404;-74
2022/05/16 09:34:01;;;;;;;7.53;3.53;;;24.60;99.90;;;;;;5037066;28;20455;-74
2022/05/16 09:36:36;;;;;;;3.60;3.00;;;24.60;99.90;;;;;;5040640;28;20557;-74
2022/05/16 09:39:04;;;;;;;6.87;3.10;;;24.60;99.90;;;;;;5032163;28;20462;-74
2022/05/16 09:41:47;;;;;;;3.40;2.73;;;24.60;99.90;;;;;;5034569;28;20526;-74
2022/05/16 09:44:32;;;;;;;7.40;3.20;;;24.50;99.90;;;;;;5036367;28;20462;-74
2022/05/16 09:47:26;;;;;;;3.80;3.00;;;24.50;99.90;;;;;;5037317;28;20507;-74
2022/05/16 09:50:16;;;;;;;4.40;3.13;;;24.50;99.90;;;;;;5035751;28;21138;-75
2022/05/16 09:52:51;;;;;;;5.50;2.97;;;24.30;99.90;;;;;;5038350;28;20462;-75
2022/05/16 09:55:33;;;;;;;4.70;2.57;;;24.00;99.90;;;;;;5040235;28;21101;-75
2022/05/16 09:58:08;;;;;;;2.70;2.50;;;24.10;99.90;;;;;;5038106;28;20472;-74
2022/05/16 10:00:42;;;;;;;3.60;2.73;;;24.10;99.90;;;;;;5036928;28;20482;-75
2022/05/16 10:03:22;;;;;;;4.60;3.30;;;24.10;99.90;;;;;;5031296;28;20458;-74
2022/05/16 10:06:03;;;;;;;3.83;3.50;;;24.30;99.90;;;;;;5034440;28;21020;-74
2022/05/16 10:08:40;;;;;;;6.60;3.37;;;24.30;99.90;;;;;;5035787;28;20917;-75
2022/05/16 10:11:23;;;;;;;3.30;2.50;;;24.40;99.90;;;;;;5033742;28;20573;-75
2022/05/16 10:13:57;;;;;;;3.60;2.40;;;24.50;99.90;;;;;;5038910;28;20554;-74
2022/05/16 10:16:29;;;;;;;7.13;2.40;;;24.50;99.90;;;;;;5039346;28;20458;-75
2022/05/16 10:19:02;;;;;;;2.90;2.40;;;24.80;99.90;;;;;;5040243;28;20462;-74
2022/05/16 10:21:33;;;;;;;7.10;2.83;;;25.00;99.90;;;;;;5037323;28;20478;-74
2022/05/16 10:24:02;;;;;;;3.00;2.70;;;25.10;99.90;;;;;;5037071;28;20465;-75
2022/05/16 10:26:43;;;;;;;7.43;2.93;;;25.80;99.90;;;;;;5037453;28;21003;-74
2022/05/16 10:29:16;;;;;;;2.57;2.37;;;26.30;99.90;;;;;;5039056;28;20462;-75
2022/05/16 10:34:40;;;;;;;5.77;2.53;;;27.40;99.90;;;;;;5033736;28;20462;-75
2022/05/16 10:37:08;;;;;;;6.90;2.57;;;28.40;99.90;;;;;;5034877;28;20456;-75
2022/05/16 10:39:40;;;;;;;3.63;2.70;;;29.20;98.20;;;;;;5033858;28;20485;-74
2022/05/16 10:42:12;;;;;;;7.77;3.40;;;29.40;96.40;;;;;;5034574;28;20459;-74
2022/05/16 10:44:48;;;;;;;5.33;3.07;;;29.30;95.90;;;;;;5038546;28;20840;-74
2022/05/16 10:47:22;;;;;;;4.73;3.10;;;28.70;95.80;;;;;;5036837;28;21005;-74
2022/05/16 10:50:16;;;;;;;4.40;2.47;;;28.40;96.30;;;;;;5034607;28;20504;-75
2022/05/16 10:52:49;;;;;;;5.10;3.87;;;28.20;96.30;;;;;;5038318;28;20471;-76
2022/05/16 10:55:23;;;;;;;6.53;2.30;;;27.80;96.80;;;;;;5037926;28;20576;-76
2022/05/16 10:58:21;;;;;;;5.47;2.30;;;27.70;97.50;;;;;;5037769;28;20465;-76
2022/05/16 11:00:58;;;;;;;4.53;2.27;;;27.80;98.50;;;;;;5042781;22;20648;-76
2022/05/16 11:03:49;;;;;;;6.37;3.77;;;27.90;97.80;;;;;;5037878;28;20454;-76
2022/05/16 11:06:56;;;;;;;4.70;2.60;;;28.10;97.40;;;;;;5037878;28;20817;-75
2022/05/16 11:09:35;;;;;;;3.70;3.27;;;28.20;97.60;;;;;;5033951;28;20524;-76
2022/05/16 11:12:18;;;;;;;3.33;2.30;;;27.50;98.20;;;;;;5038386;28;20629;-76
2022/05/16 11:14:54;;;;;;;4.27;3.00;;;27.50;98.40;;;;;;5039633;28;20460;-76
2022/05/16 11:17:30;;;;;;;3.17;2.70;;;27.60;97.70;;;;;;5036297;28;20544;-74
2022/05/16 11:20:09;;;;;;;3.00;2.43;;;27.50;97.80;;;;;;5036388;28;20483;-75
2022/05/16 11:22:52;;;;;;;6.53;2.67;;;28.00;99.10;;;;;;5042296;28;20551;-75
2022/05/16 11:28:26;;;;;;;3.30;2.57;;;29.80;94.70;;;;;;5039398;28;20513;-76
2022/05/16 11:31:02;;;;;;;2.90;2.70;;;31.30;94.30;;;;;;5040289;28;20482;-76
2022/05/16 11:33:43;;;;;;;3.93;2.40;;;32.50;91.40;;;;;;5036657;28;20455;-76
2022/05/16 11:36:20;;;;;;;3.00;2.70;;;32.40;89.80;;;;;;5037820;28;20466;-75
2022/05/16 11:39:11;;;;;;;9.50;3.07;;;31.90;87.40;;;;;;5037939;28;20460;-75
2022/05/16 11:41:59;;;;;;;3.77;2.60;;;32.10;86.20;;;;;;5043291;28;20464;-75
2022/05/16 11:44:40;;;;;;;5.23;2.87;;;32.60;85.60;;;;;;5040713;28;20828;-75
2022/05/16 11:47:22;;;;;;;7.80;2.40;;;33.30;82.20;;;;;;5045084;28;20545;-75
2022/05/16 11:50:06;;;;;;;5.57;2.80;;;33.30;80.40;;;;;;5044506;28;21070;-75
2022/05/16 11:52:47;;;;;;;2.83;2.57;;;33.00;80.50;;;;;;5038689;28;20458;-76
2022/05/16 12:01:06;;;;;;;2.40;2.03;;;32.30;80.30;;;;;;5041422;28;20492;-75
2022/05/16 12:03:39;;;;;;;6.07;3.07;;;32.60;82.90;;;;;;5037545;28;20984;-75
2022/05/16 12:06:36;;;;;;;2.30;2.10;;;33.70;80.20;;;;;;5044381;28;20451;-75
2022/05/16 12:09:23;;;;;;;2.67;2.47;;;34.70;74.10;;;;;;5046167;28;20520;-75
2022/05/16 12:12:01;;;;;;;4.40;2.50;;;35.60;70.30;;;;;;5042936;28;20482;-75
2022/05/16 12:14:32;;;;;;;2.57;2.37;;;35.30;67.30;;;;;;5045342;28;20496;-75
2022/05/16 12:17:17;;;;;;;4.07;2.50;;;34.40;66.50;;;;;;5043284;28;20513;-75
2022/05/16 12:19:50;;;;;;;3.30;2.30;;;33.20;68.30;;;;;;5039084;28;20990;-74
2022/05/16 12:22:43;;;;;;;4.73;3.00;;;32.20;70.10;;;;;;5039661;28;20459;-74
2022/05/16 12:25:27;;;;;;;12.33;2.60;;;31.90;71.50;;;;;;5040018;28;20474;-74
2022/05/16 12:28:29;;;;;;;4.50;3.10;;;31.40;74.20;;;;;;5039159;28;20474;-74
2022/05/16 12:30:59;;;;;;;4.60;2.27;;;31.30;74.30;;;;;;5036338;28;20500;-75
2022/05/16 12:33:55;;;;;;;3.93;2.60;;;31.00;76.90;;;;;;5040913;28;20856;-74
2022/05/16 12:36:28;;;;;;;3.10;2.60;;;31.10;75.70;;;;;;5040375;28;20459;-74
2022/05/16 12:39:08;;;;;;;9.73;2.97;;;31.50;77.40;;;;;;5038192;28;20467;-74
2022/05/16 12:42:00;;;;;;;2.60;2.10;;;32.70;71.40;;;;;;5017959;22;20488;-77
2022/05/16 12:44:40;;;;;;;2.90;2.60;;;33.30;69.90;;;;;;4990371;28;20472;-77
2022/05/16 12:47:44;;;;;;;3.20;2.93;;;33.60;69.00;;;;;;4988586;28;20472;-77
2022/05/16 12:50:38;;;;;;;2.90;1.97;;;33.90;67.80;;;;;;4968403;28;21780;-77
2022/05/16 12:53:23;;;;;;;2.63;2.20;;;35.10;64.90;;;;;;4954718;28;20545;-77
2022/05/16 12:56:01;;;;;;;4.10;2.00;;;34.50;64.00;;;;;;4992575;28;20992;-78
2022/05/16 12:58:37;;;;;;;2.97;2.30;;;33.60;67.10;;;;;;4985949;28;20471;-77
2022/05/16 13:01:14;;;;;;;3.33;2.30;;;33.20;68.20;;;;;;4983656;28;20490;-78
2022/05/16 13:03:52;;;;;;;7.03;3.10;;;32.30;69.70;;;;;;4987452;28;20617;-76
2022/05/16 13:06:55;;;;;;;4.40;2.67;;;31.20;71.60;;;;;;4985511;28;20468;-76
2022/05/16 13:09:45;;;;;;;2.70;2.50;;;31.00;72.50;;;;;;4976514;28;20539;-76
2022/05/16 13:12:28;;;;;;;6.10;3.30;;;30.50;73.80;;;;;;4960655;28;20504;-75
2022/05/16 13:15:02;;;;;;;4.77;2.70;;;30.00;75.30;;;;;;4983151;28;20473;-76
2022/05/16 13:17:35;;;;;;;3.60;2.50;;;29.60;77.50;;;;;;4982143;28;20469;-76
2022/05/16 13:20:05;;;;;;;5.90;3.43;;;29.50;80.60;;;;;;4985685;28;20548;-76
2022/05/16 13:22:34;;;;;;;7.73;2.83;;;29.10;80.50;;;;;;4988327;28;20473;-76
2022/05/16 13:25:01;;;;;;;6.50;3.30;;;28.90;83.30;;;;;;4981282;28;20470;-76
2022/05/16 13:30:17;;;;;;;13.70;4.47;;;28.00;91.40;;;;;;4984071;28;20822;-76
2022/05/16 13:32:45;;;;;;;7.40;5.30;;;27.10;99.90;;;;;;4985965;28;21000;-76
2022/05/16 13:35:14;;;;;;;7.00;4.87;;;26.00;99.90;;;;;;4985627;28;20854;-76
2022/05/16 13:37:43;;;;;;;9.43;6.13;;;24.70;99.90;;;;;;4986721;28;20481;-76
2022/05/16 13:40:17;;;;;;;11.23;5.50;;;23.90;99.90;;;;;;4983341;28;20468;-77
2022/05/16 13:42:46;;;;;;;8.00;5.43;;;23.40;99.90;;;;;;4987019;28;20850;-75
2022/05/16 13:45:13;;;;;;;13.30;6.27;;;23.30;99.90;;;;;;4987530;28;20461;-77
2022/05/16 13:47:41;;;;;;;9.50;6.73;;;23.00;99.90;;;;;;4982257;28;20552;-77
2022/05/16 13:50:19;;;;;;;6.63;5.67;;;23.10;99.90;;;;;;4988967;28;20476;-77
2022/05/16 13:52:45;;;;;;;9.50;6.40;;;23.20;99.90;;;;;;4986468;28;20477;-77
2022/05/16 13:55:14;;;;;;;10.73;6.17;;;23.30;99.90;;;;;;4984851;28;20477;-77
2022/05/16 13:57:41;;;;;;;13.60;7.60;;;23.50;99.90;;;;;;4985377;28;20469;-78
2022/05/16 14:00:22;;;;;;;6.80;6.13;;;23.60;99.90;;;;;;4981405;28;20466;-77